El Prado, NM (87529)

4:36 AM MDT on March 26, 2017 (GMT -0600)
Blueberry Hill | | Change Station

Elev 7064 ft 36.43 °N, 105.60 °W | Updated 30 seconds ago

Overcast
Overcast
35.5 °F
Feels Like 31 °F
N
5.0
Wind Variable Wind from West

Today
High -- | Low -- °F
--% Chance of Precip.
Yesterday
High -- | Low -- °F
Precip. -- in
Pressure 29.85 in
Visibility 10.0 miles
Clouds Mostly Cloudy 2000 ft
Overcast 2900 ft
Windchill 31 °F
Dew Point 33 °F
Humidity 93%
Rainfall 0.02 in
Snow Depth Not available.
6:56 AM 7:19 PM
Waning Crescent, 4% visible
METAR KAXX 261015Z AUTO 24013G27KT 10SM -SN BKN020 OVC029 00/M02 A2985 RMK AO2 T00011024
Pressure 29.85 in
Visibility 10.0 miles
Clouds Mostly Cloudy 2000 ft
Overcast 2900 ft
Windchill 31 °F
Dew Point 33 °F
Humidity 93%
Rainfall 0.02 in
Snow Depth Not available.
6:56 AM 7:19 PM
Waning Crescent, 4% visible
METAR KAXX 261015Z AUTO 24013G27KT 10SM -SN BKN020 OVC029 00/M02 A2985 RMK AO2 T00011024

Get Severe Weather Alerts

Thanks for signing up!

Be on the lookout for a verification email in your inbox.

You'll start receiving the daily forecast at 8 AM.

×

10-Day Weather Forecast

Almanac

Astronomy

Mar. 26, 2017 Rise Set
Actual Time
Civil Twilight
Nautical Twilight
Astronomical Twilight
Moon
Length of Visible Light
Length of Day
Tomorrow will be .
, % of the Moon is Illuminated

Today's Extremes

State Highs State Lows

Community

WunderPhotos

Upload Photos

1,962,540 photos uploaded!

WunderBlog® & News

Nearby

Air Quality

  Air Quality AQ Index Pollutant
Not available.

Snow Depth

Station Depth Elevation

Earthquake Activity

City Distance Mag. Time & Date
Minimum magnitude displayed is 2.5.

Earthquake Activity

City Distance Mag. Time & Date
Minimum magnitude displayed is 2.5.

Coastal Water Temperatures

Place Temperature

Stations

Nearby Weather Stations

Station Location Temp. Windchill Dew Point Humidity Wind Precip. Elev Updated Type
                   

Watches & Warnings

There are currently no watches in effect.